createdAt,value
2023-01-26T00:00:29.929Z,0.3
2023-01-26T00:06:26.584Z,0.4
2023-01-26T00:31:07.108Z,0.3
2023-01-26T00:37:20.055Z,0.2
2023-01-26T00:43:16.959Z,0.1
2023-01-26T00:49:15.510Z,-0.3
2023-01-26T00:55:19.742Z,-0.1
2023-01-26T01:20:33.980Z,0.1
2023-01-26T01:26:49.547Z,0.2
2023-01-26T01:39:47.424Z,0.3
2023-01-26T01:59:01.527Z,0.1
2023-01-26T02:18:09.871Z,0
2023-01-26T04:52:11.810Z,-0.1
2023-01-26T05:35:34.325Z,-0.1
2023-01-26T05:41:24.804Z,-0.1
2023-01-26T05:47:14.880Z,-0.1
2023-01-26T05:53:05.087Z,0
2023-01-26T05:58:58.432Z,-0.2
2023-01-26T06:04:48.930Z,-0.1
2023-01-26T06:10:39.675Z,-0.2
2023-01-26T06:16:30.744Z,-0.2
2023-01-26T06:22:22.166Z,-0.2
2023-01-26T06:28:13.448Z,-0.3
2023-01-26T06:34:04.337Z,-0.3
2023-01-26T06:39:54.655Z,-0.3
2023-01-26T06:45:44.669Z,-0.4
2023-01-26T06:51:38.227Z,-0.6
2023-01-26T06:57:31.190Z,-0.4
2023-01-26T07:03:22.233Z,-0.4
2023-01-26T07:09:12.877Z,-0.3
2023-01-26T07:22:01.313Z,-0.3
2023-01-26T07:27:49.126Z,-0.4
2023-01-26T07:33:40.833Z,-0.3
2023-01-26T07:39:32.027Z,-0.2
2023-01-26T07:45:24.946Z,-0.3
2023-01-26T07:51:17.780Z,-0.2
2023-01-26T07:57:09.242Z,-0.2
2023-01-26T08:02:59.851Z,-0.2
2023-01-26T08:08:51.271Z,-0.1
2023-01-26T08:14:46.927Z,-0.2
2023-01-26T08:20:39.855Z,0
2023-01-26T08:26:31.935Z,-0.1
2023-01-26T08:32:24.246Z,-0.1
2023-01-26T08:48:39.550Z,0.2
2023-01-26T08:54:27.158Z,0.2
2023-01-26T09:00:18.020Z,0.2
2023-01-26T09:07:17.875Z,0.2
2023-01-26T09:13:07.958Z,0.3
2023-01-26T09:18:58.492Z,0.3
2023-01-26T09:24:49.088Z,0.4
2023-01-26T09:30:37.786Z,0.4
2023-01-26T09:36:27.841Z,0.6
2023-01-26T09:42:19.553Z,0.5
2023-01-26T09:48:14.891Z,0.6
2023-01-26T09:54:10.440Z,0.5
2023-01-26T10:00:01.451Z,0.4
2023-01-26T10:05:54.398Z,0.3
2023-01-26T10:11:45.993Z,0.6
2023-01-26T10:17:36.451Z,0.6
2023-01-26T10:24:38.598Z,0.3
2023-01-26T10:30:27.569Z,0.4
2023-01-26T10:36:19.055Z,0.6
2023-01-26T10:42:08.779Z,0.4
2023-01-26T10:48:00.297Z,0.6
2023-01-26T10:53:54.340Z,0.6
2023-01-26T10:59:45.954Z,0.5
2023-01-26T11:05:36.100Z,0.6
2023-01-26T11:11:27.622Z,0.6
2023-01-26T11:17:19.469Z,0.7
2023-01-26T11:23:09.401Z,0.6
2023-01-26T11:29:00.421Z,0.8
2023-01-26T11:34:52.162Z,0.8
2023-01-26T11:40:42.320Z,0.8
2023-01-26T11:46:33.937Z,0.9
2023-01-26T11:52:24.359Z,0.9
2023-01-26T11:58:14.865Z,1.1
2023-01-26T12:04:05.988Z,1
2023-01-26T12:09:56.936Z,1
2023-01-26T12:17:08.021Z,1
2023-01-26T12:23:08.321Z,1.1
2023-01-26T12:28:58.931Z,1.2
2023-01-26T12:34:51.809Z,1.1
2023-01-26T12:40:43.250Z,1.1
2023-01-26T12:46:32.469Z,1
2023-01-26T12:52:22.846Z,1.1
2023-01-26T12:58:13.390Z,1.1
2023-01-26T13:04:03.565Z,1.1
2023-01-26T13:09:52.497Z,1.1
2023-01-26T13:15:43.815Z,0.9
2023-01-26T13:21:36.492Z,1
2023-01-26T13:27:26.924Z,1
2023-01-26T13:33:17.959Z,1.2
2023-01-26T13:39:07.102Z,1.1
2023-01-26T13:44:57.825Z,1.3
2023-01-26T13:50:50.595Z,1.2
2023-01-26T13:56:41.515Z,1.2
2023-01-26T14:02:32.829Z,1
2023-01-26T14:08:22.722Z,1.1
2023-01-26T14:14:12.930Z,1.1
2023-01-26T14:20:06.006Z,1.1
2023-01-26T14:25:56.127Z,1.3
2023-01-26T14:31:46.206Z,1.2
2023-01-26T14:37:37.032Z,1.2
2023-01-26T14:43:25.789Z,1.2
2023-01-26T14:49:15.475Z,1.3
2023-01-26T14:55:07.927Z,1.3
2023-01-26T15:00:57.446Z,1.3
2023-01-26T15:06:50.405Z,1.3
2023-01-26T15:12:44.676Z,1.4
2023-01-26T15:18:35.359Z,1.3
2023-01-26T15:24:27.800Z,1.3
2023-01-26T15:30:17.900Z,1.3
2023-01-26T15:36:07.241Z,1.3
2023-01-26T15:41:58.752Z,1.4
2023-01-26T15:47:48.533Z,1.4
2023-01-26T15:53:37.762Z,1.4
2023-01-26T15:59:28.574Z,1.3
2023-01-26T16:05:19.154Z,1.4
2023-01-26T16:11:11.037Z,1.5
2023-01-26T16:17:00.279Z,1.4
2023-01-26T16:22:50.309Z,1.5
2023-01-26T16:28:41.217Z,1.6
2023-01-26T16:34:31.312Z,1.5
2023-01-26T16:40:22.172Z,1.5
2023-01-26T16:47:20.782Z,1.5
2023-01-26T16:53:10.117Z,1.5
2023-01-26T16:59:00.721Z,1.6
2023-01-26T17:04:55.716Z,1.5
2023-01-26T17:10:59.791Z,1.6
2023-01-26T17:18:00.105Z,1.6
2023-01-26T17:23:52.703Z,1.7
2023-01-26T17:29:45.279Z,1.6
2023-01-26T17:35:35.766Z,1.7
2023-01-26T17:41:25.838Z,1.7
2023-01-26T17:47:16.778Z,1.8
2023-01-26T17:53:07.046Z,1.8
2023-01-26T17:58:56.581Z,1.8
2023-01-26T18:04:48.047Z,1.9
2023-01-26T18:10:39.954Z,1.8
2023-01-26T18:16:31.199Z,1.8
2023-01-26T18:22:22.156Z,1.9
2023-01-26T18:28:12.952Z,1.9
2023-01-26T18:34:07.151Z,1.9
2023-01-26T18:39:58.001Z,1.9
2023-01-26T18:45:49.368Z,1.9
2023-01-26T18:51:41.091Z,2
2023-01-26T18:57:34.512Z,2
2023-01-26T19:03:25.908Z,2
2023-01-26T19:09:18.516Z,2
2023-01-26T19:15:08.246Z,2
2023-01-26T19:20:59.713Z,2
2023-01-26T19:37:19.553Z,2
2023-01-26T19:43:13.983Z,2.1
2023-01-26T19:49:05.361Z,2.1
2023-01-26T19:54:57.491Z,2.1
2023-01-26T20:00:47.675Z,2.1
2023-01-26T20:06:37.913Z,2.2
2023-01-26T20:12:30.097Z,2.2
2023-01-26T20:18:22.651Z,2.2
2023-01-26T20:24:14.091Z,2.2
2023-01-26T20:30:06.017Z,2.3
2023-01-26T20:35:55.279Z,2.3
2023-01-26T20:42:54.379Z,2.3
2023-01-26T20:48:44.205Z,2.3
2023-01-26T20:54:34.157Z,2.2
2023-01-26T21:00:23.482Z,2.3
2023-01-26T21:06:15.274Z,2.3
2023-01-26T21:12:06.322Z,2.4
2023-01-26T21:17:56.592Z,2.4
2023-01-26T21:23:46.430Z,2.4
2023-01-26T21:29:34.861Z,2.4
2023-01-26T21:35:24.791Z,2.5
2023-01-26T21:41:15.704Z,2.4
2023-01-26T21:47:06.019Z,2.4
2023-01-26T21:52:56.538Z,2.4
2023-01-26T21:58:49.751Z,2.5
2023-01-26T22:04:41.253Z,2.6
2023-01-26T22:14:05.984Z,2.5
2023-01-26T22:21:01.269Z,2.5
2023-01-26T22:26:50.805Z,2.5
2023-01-26T22:32:45.310Z,2.5
2023-01-26T22:38:35.068Z,2.6
2023-01-26T22:44:29.155Z,2.5
2023-01-26T22:50:24.073Z,2.5
2023-01-26T22:56:19.092Z,2.5
2023-01-26T23:02:09.205Z,2.5
2023-01-26T23:07:59.693Z,2.5
2023-01-26T23:13:51.939Z,2.6
2023-01-26T23:19:44.971Z,2.7
2023-01-26T23:25:35.527Z,2.6
2023-01-26T23:31:27.943Z,2.7
2023-01-26T23:37:18.955Z,2.8
2023-01-26T23:43:16.812Z,2.6
2023-01-26T23:49:07.888Z,2.6
2023-01-26T23:55:08.643Z,2.7
